Time;durP1;ratioP1;P1;durP2;ratioP2;P2;SDS_P1;SDS_P2;PMS_P1;PMS_P2;Temp;Humidity;BMP_temperature;BMP_pressure;BME280_temperature;BME280_humidity;BME280_pressure;Samples;Min_cycle;Max_cycle;Signal;HPM_P1;HPM_P2
2021/12/15 00:00:14;;;;;;;48.90;31.35;;;;;;;4.04;62.35;95596.66;5080326;28;20808;-76
2021/12/15 00:02:40;;;;;;;52.83;33.07;;;;;;;4.12;62.07;95604.31;5079014;28;20463;-76
2021/12/15 00:05:06;;;;;;;48.63;31.70;;;;;;;4.19;62.08;95594.94;5079517;28;20916;-77
2021/12/15 00:07:31;;;;;;;61.28;37.67;;;;;;;4.30;61.88;95598.06;5077990;28;21018;-76
2021/12/15 00:09:57;;;;;;;50.37;32.73;;;;;;;4.37;60.96;95602.34;5062159;28;20401;-76
2021/12/15 00:12:23;;;;;;;48.63;31.98;;;;;;;4.38;61.22;95598.78;5061696;28;20402;-76
2021/12/15 00:14:48;;;;;;;48.80;31.60;;;;;;;4.39;61.50;95604.75;5079327;28;20410;-76
2021/12/15 00:17:14;;;;;;;48.47;31.48;;;;;;;4.44;60.61;95608.41;5095447;28;20395;-76
2021/12/15 00:19:39;;;;;;;43.88;30.25;;;;;;;4.46;60.73;95608.25;5103894;28;21181;-76
2021/12/15 00:22:05;;;;;;;46.73;30.30;;;;;;;4.50;60.78;95606.91;5104254;28;20416;-76
2021/12/15 00:24:31;;;;;;;43.97;29.23;;;;;;;4.61;59.95;95616.00;5078723;28;20932;-76
2021/12/15 00:26:57;;;;;;;50.38;32.33;;;;;;;4.71;59.20;95619.91;5062019;28;20406;-76
2021/12/15 00:29:32;;;;;;;58.77;36.03;;;;;;;4.81;59.62;95620.47;5061669;28;20398;-76
2021/12/15 00:31:58;;;;;;;41.08;27.50;;;;;;;4.84;58.61;95619.31;5063311;28;20451;-76
2021/12/15 00:34:23;;;;;;;45.83;31.42;;;;;;;4.85;59.65;95625.25;5079324;28;21025;-76
2021/12/15 00:36:49;;;;;;;41.40;28.63;;;;;;;4.91;58.69;95624.56;5080149;28;20480;-76
2021/12/15 00:39:17;;;;;;;41.47;27.73;;;;;;;5.00;58.86;95620.94;5061625;28;20410;-76
2021/12/15 00:41:43;;;;;;;39.27;25.23;;;;;;;4.99;57.98;95621.91;5061574;28;20579;-76
2021/12/15 00:44:08;;;;;;;39.60;25.27;;;;;;;5.00;58.44;95610.63;5079448;28;20414;-76
2021/12/15 00:46:35;;;;;;;37.90;26.23;;;;;;;4.98;58.20;95607.41;5103300;28;20450;-76
2021/12/15 00:49:00;;;;;;;34.40;23.85;;;;;;;4.99;58.68;95611.59;5076603;28;20426;-76
2021/12/15 00:51:26;;;;;;;38.10;25.83;;;;;;;4.99;58.78;95611.59;5079617;28;20428;-76
2021/12/15 00:53:51;;;;;;;36.37;25.10;;;;;;;5.05;57.71;95613.47;5079472;28;20422;-76
2021/12/15 00:56:17;;;;;;;31.83;23.10;;;;;;;4.92;58.20;95605.56;5078640;28;20395;-76
2021/12/15 00:58:42;;;;;;;36.77;24.07;;;;;;;4.90;58.31;95610.09;5077576;28;20405;-76
2021/12/15 01:01:08;;;;;;;37.85;24.67;;;;;;;4.78;58.84;95605.38;5061444;28;20446;-77
2021/12/15 01:03:34;;;;;;;34.80;24.73;;;;;;;4.77;58.61;95602.97;5079233;28;20791;-76
2021/12/15 01:06:06;;;;;;;34.50;23.00;;;;;;;4.70;58.16;95597.69;5103690;28;21097;-76
2021/12/15 01:08:31;;;;;;;34.70;23.77;;;;;;;4.63;59.17;95590.88;5061744;28;20405;-76
2021/12/15 01:11:19;;;;;;;39.30;25.15;;;;;;;4.62;58.76;95597.78;5061454;28;20391;-76
2021/12/15 01:22:03;;;;;;;30.25;21.02;;;;;;;4.56;58.76;95595.94;5064090;28;20405;-75
2021/12/15 01:24:31;;;;;;;30.13;19.88;;;;;;;4.37;59.68;95596.41;5062662;28;20040;-76
2021/12/15 01:26:57;;;;;;;29.27;18.48;;;;;;;4.03;60.87;95601.97;5095426;28;20028;-76
2021/12/15 01:29:25;;;;;;;25.13;16.88;;;;;;;3.80;60.93;95614.84;5078693;28;20628;-76
2021/12/15 01:31:51;;;;;;;31.35;18.30;;;;;;;3.66;61.72;95602.69;5103787;28;20052;-77
2021/12/15 01:34:16;;;;;;;30.45;18.77;;;;;;;3.44;62.16;95605.06;5079002;28;20396;-76
2021/12/15 01:36:42;;;;;;;32.33;19.45;;;;;;;3.26;62.72;95622.50;5062344;28;20077;-76
2021/12/15 01:39:07;;;;;;;31.52;17.70;;;;;;;3.10;64.09;95607.13;5062108;28;20518;-75
2021/12/15 01:41:33;;;;;;;32.42;18.73;;;;;;;3.07;63.94;95610.00;5079199;28;20031;-75
2021/12/15 01:46:56;;;;;;;33.85;19.25;;;;;;;2.95;64.71;95599.31;5103044;28;20507;-74
2021/12/15 01:49:45;;;;;;;32.83;18.90;;;;;;;2.95;64.66;95600.09;5064214;28;20032;-76
2021/12/15 01:52:19;;;;;;;32.80;16.95;;;;;;;2.85;64.38;95596.09;5080263;28;20039;-76
2021/12/15 01:54:53;;;;;;;34.78;19.02;;;;;;;2.76;65.09;95600.44;5063150;28;20083;-76
2021/12/15 01:57:18;;;;;;;35.92;20.05;;;;;;;2.76;65.28;95609.91;5077770;28;20037;-74
2021/12/15 01:59:44;;;;;;;32.10;20.85;;;;;;;2.74;65.11;95599.00;5103187;28;20032;-76
2021/12/15 02:02:10;;;;;;;30.05;16.73;;;;;;;2.70;64.68;95603.69;5078329;28;20479;-74
2021/12/15 02:04:36;;;;;;;33.13;19.10;;;;;;;2.61;65.38;95602.91;5080391;28;20063;-74
2021/12/15 02:07:03;;;;;;;32.28;18.70;;;;;;;2.60;65.31;95598.75;5078461;28;20029;-76
2021/12/15 02:09:48;;;;;;;34.55;19.90;;;;;;;2.54;66.03;95603.72;5045104;28;20407;-74
2021/12/15 02:12:17;;;;;;;29.88;18.05;;;;;;;2.54;65.92;95599.38;5100029;28;20044;-76
2021/12/15 02:14:42;;;;;;;34.15;19.58;;;;;;;2.55;65.95;95603.53;5077960;28;20035;-77
2021/12/15 02:17:07;;;;;;;31.35;18.05;;;;;;;2.56;65.75;95601.78;5061188;28;20032;-76
2021/12/15 02:19:33;;;;;;;36.30;21.00;;;;;;;2.64;66.03;95604.34;5078080;28;20101;-76
2021/12/15 02:22:01;;;;;;;33.33;19.83;;;;;;;2.69;65.54;95599.50;5077632;28;20411;-76
2021/12/15 02:24:27;;;;;;;36.08;20.48;;;;;;;2.73;65.54;95600.78;5078595;28;20487;-75
2021/12/15 02:26:58;;;;;;;34.90;19.80;;;;;;;2.76;64.87;95604.78;5061419;28;20032;-76
2021/12/15 02:29:24;;;;;;;30.05;18.85;;;;;;;2.74;65.26;95599.81;5078707;28;20024;-76
2021/12/15 02:39:59;;;;;;;35.35;20.30;;;;;;;2.79;64.55;95600.16;5002634;28;20081;-75
2021/12/15 02:42:28;;;;;;;36.03;20.08;;;;;;;2.78;64.77;95598.53;5004694;28;20716;-76
2021/12/15 02:44:54;;;;;;;32.28;19.27;;;;;;;2.84;64.74;95608.16;5043686;28;20044;-76
2021/12/15 02:47:23;;;;;;;34.90;20.45;;;;;;;2.84;63.81;95603.00;5061471;28;20109;-76
2021/12/15 02:49:50;;;;;;;36.72;19.23;;;;;;;2.90;63.30;95601.53;5076601;28;20448;-76
2021/12/15 02:52:18;;;;;;;34.67;18.15;;;;;;;2.92;63.61;95600.41;5077184;28;20091;-76
2021/12/15 02:54:44;;;;;;;33.95;18.63;;;;;;;2.96;62.99;95601.72;5078647;28;20044;-76
2021/12/15 02:57:13;;;;;;;37.42;20.92;;;;;;;2.97;62.76;95607.66;5077834;28;20032;-76
2021/12/15 03:05:18;;;;;;;31.25;16.88;;;;;;;2.67;62.04;95606.59;5079202;28;20579;-76
2021/12/15 03:08:00;;;;;;;25.45;15.85;;;;;;;2.57;61.75;95600.81;5061222;28;20055;-76
2021/12/15 03:15:56;;;;;;;25.88;15.73;;;;;;;2.50;62.50;95610.94;5066441;28;20051;-76
2021/12/15 03:18:23;;;;;;;34.88;18.13;;;;;;;2.58;62.68;95608.34;5105738;28;20032;-76
2021/12/15 03:20:53;;;;;;;27.35;16.17;;;;;;;2.64;62.27;95612.06;5081109;28;20100;-76
2021/12/15 03:23:31;;;;;;;22.65;14.40;;;;;;;2.70;61.48;95614.75;5080183;28;20506;-75
2021/12/15 03:25:58;;;;;;;27.05;15.50;;;;;;;2.76;61.35;95621.00;5064954;28;20032;-76
2021/12/15 03:34:09;;;;;;;33.80;17.77;;;;;;;2.91;61.06;95619.34;5083383;28;20133;-76
2021/12/15 03:37:07;;;;;;;25.27;15.15;;;;;;;2.89;61.56;95621.28;5081421;28;20035;-76
2021/12/15 03:39:39;;;;;;;29.23;14.82;;;;;;;2.95;60.98;95620.66;5069181;28;20117;-76
2021/12/15 03:42:06;;;;;;;28.98;15.35;;;;;;;2.97;61.24;95623.06;5081335;28;20033;-76
2021/12/15 03:44:33;;;;;;;29.52;16.17;;;;;;;3.06;60.73;95623.81;5079274;28;20047;-76
2021/12/15 03:46:59;;;;;;;24.80;14.93;;;;;;;3.03;60.19;95626.72;5080187;28;20106;-76
2021/12/15 03:49:24;;;;;;;24.83;14.30;;;;;;;2.96;60.44;95631.72;5105994;28;20453;-76
2021/12/15 03:51:50;;;;;;;24.60;15.02;;;;;;;2.90;60.24;95617.75;5080710;28;20073;-76
2021/12/15 03:54:17;;;;;;;32.78;16.40;;;;;;;2.89;60.50;95626.44;5063837;28;20028;-77
2021/12/15 03:56:43;;;;;;;30.40;16.63;;;;;;;2.86;60.53;95631.91;5063421;28;20652;-75
2021/12/15 03:59:09;;;;;;;27.98;16.27;;;;;;;2.77;60.27;95622.63;5080326;28;20630;-76
2021/12/15 04:01:35;;;;;;;28.17;17.08;;;;;;;2.75;60.73;95632.22;5063042;28;20115;-76
2021/12/15 04:04:01;;;;;;;25.67;15.98;;;;;;;2.64;61.42;95625.69;5063490;28;20031;-76
2021/12/15 04:06:29;;;;;;;25.85;14.43;;;;;;;2.52;61.40;95634.69;5063703;28;20181;-77
2021/12/15 04:08:55;;;;;;;30.40;16.17;;;;;;;2.39;61.91;95634.34;5079594;28;20036;-77
2021/12/15 04:11:22;;;;;;;24.50;14.52;;;;;;;2.32;62.46;95644.47;5063168;28;20017;-77
2021/12/15 04:13:48;;;;;;;26.38;16.48;;;;;;;2.24;62.72;95646.22;5046064;28;20176;-77
2021/12/15 04:16:37;;;;;;;31.42;17.65;;;;;;;2.28;62.65;95644.97;5080944;28;20029;-77
2021/12/15 04:19:01;;;;;;;20.15;13.57;;;;;;;2.23;62.75;95650.56;5065522;28;20093;-77
2021/12/15 04:21:27;;;;;;;22.60;14.25;;;;;;;2.17;62.86;95642.69;5063069;28;20028;-77
2021/12/15 04:23:54;;;;;;;24.73;14.82;;;;;;;2.15;63.10;95657.47;5105258;28;20032;-77
2021/12/15 04:26:19;;;;;;;26.40;14.90;;;;;;;2.16;62.92;95649.59;5079094;28;20028;-78
2021/12/15 04:28:44;;;;;;;25.10;14.82;;;;;;;2.14;63.19;95656.66;5082300;28;20499;-78
2021/12/15 04:31:11;;;;;;;22.50;13.57;;;;;;;2.08;63.08;95658.06;5083993;28;20037;-79
2021/12/15 04:33:59;;;;;;;25.67;15.02;;;;;;;2.14;63.14;95666.91;5069047;28;20036;-77
2021/12/15 04:36:26;;;;;;;27.48;15.70;;;;;;;2.22;62.35;95669.47;5081500;28;20039;-77
2021/12/15 04:38:52;;;;;;;31.92;17.98;;;;;;;2.23;62.71;95660.81;5081983;28;20440;-78
2021/12/15 04:41:18;;;;;;;30.08;16.73;;;;;;;2.31;62.07;95670.31;5065145;28;20032;-78
2021/12/15 04:43:46;;;;;;;34.75;18.05;;;;;;;2.41;62.20;95666.59;5084779;28;20086;-79
2021/12/15 04:46:12;;;;;;;28.73;14.48;;;;;;;2.47;61.06;95669.50;5110154;28;20119;-77
2021/12/15 04:48:39;;;;;;;29.48;18.45;;;;;;;2.52;61.76;95667.25;5063972;28;20438;-77
2021/12/15 04:51:05;;;;;;;27.95;16.33;;;;;;;2.55;61.71;95662.59;5078113;28;20028;-79
2021/12/15 04:53:31;;;;;;;26.95;16.00;;;;;;;2.60;60.58;95662.09;5047427;28;20706;-78
2021/12/15 04:55:58;;;;;;;23.95;16.42;;;;;;;2.62;61.47;95666.13;5080664;28;20033;-79
2021/12/15 04:58:23;;;;;;;38.25;20.77;;;;;;;2.68;61.40;95664.69;5107261;28;20518;-78
2021/12/15 05:00:55;;;;;;;29.83;18.60;;;;;;;2.70;61.43;95671.25;5100060;28;20040;-79
2021/12/15 05:03:20;;;;;;;30.50;16.60;;;;;;;2.84;60.83;95662.09;5089700;28;20131;-78
2021/12/15 05:05:48;;;;;;;35.75;19.50;;;;;;;2.89;60.52;95667.53;5083527;28;20020;-79
2021/12/15 05:08:14;;;;;;;32.35;20.70;;;;;;;2.89;60.03;95661.59;5065494;28;20024;-79
2021/12/15 05:10:40;;;;;;;30.02;17.05;;;;;;;2.93;60.19;95671.41;5082958;28;20864;-79
2021/12/15 05:13:05;;;;;;;38.75;19.63;;;;;;;2.95;60.20;95666.91;5048446;28;20039;-79
2021/12/15 05:15:31;;;;;;;39.70;22.58;;;;;;;2.97;59.80;95675.25;5065528;28;20043;-79
2021/12/15 05:17:57;;;;;;;36.80;21.33;;;;;;;2.93;59.93;95668.84;5067145;28;20438;-79
2021/12/15 05:20:23;;;;;;;33.17;20.98;;;;;;;2.95;60.23;95676.38;5066717;28;20556;-78
2021/12/15 05:22:49;;;;;;;37.97;20.88;;;;;;;2.93;60.23;95673.16;5080815;28;20090;-79
2021/12/15 05:25:17;;;;;;;31.58;16.83;;;;;;;2.87;59.80;95674.59;5081317;28;20110;-77
2021/12/15 05:27:43;;;;;;;27.67;16.75;;;;;;;2.78;60.32;95678.16;5077213;28;20039;-78
2021/12/15 05:30:12;;;;;;;25.85;15.98;;;;;;;2.72;60.32;95683.94;5078597;28;20033;-77
2021/12/15 05:32:37;;;;;;;31.20;18.05;;;;;;;2.67;60.57;95683.63;5061888;28;20037;-77
2021/12/15 05:35:04;;;;;;;32.50;19.08;;;;;;;2.63;60.59;95682.34;5062429;28;20423;-77
2021/12/15 05:37:30;;;;;;;34.00;18.20;;;;;;;2.64;60.75;95683.94;5065370;28;20169;-79
2021/12/15 05:39:55;;;;;;;38.35;21.85;;;;;;;2.65;60.97;95678.66;5081940;28;20032;-82
2021/12/15 05:42:21;;;;;;;39.42;22.35;;;;;;;2.73;60.37;95677.81;5064295;28;20447;-78
2021/12/15 05:44:47;;;;;;;44.25;25.27;;;;;;;2.82;60.58;95671.72;5080133;28;20055;-78
2021/12/15 05:47:12;;;;;;;42.42;26.08;;;;;;;2.96;60.43;95683.91;5094960;28;20470;-79
2021/12/15 05:49:38;;;;;;;39.90;22.52;;;;;;;2.97;60.47;95685.50;5080798;28;20039;-78
2021/12/15 05:52:04;;;;;;;32.67;20.63;;;;;;;3.02;60.00;95687.59;5070686;28;20039;-78
2021/12/15 05:54:29;;;;;;;42.25;22.33;;;;;;;3.09;59.68;95682.59;5045812;28;20055;-78
2021/12/15 05:56:55;;;;;;;41.15;22.13;;;;;;;3.09;59.74;95677.44;5079837;28;20059;-78
2021/12/15 05:59:20;;;;;;;40.60;23.52;;;;;;;3.15;60.17;95681.94;5061870;28;20035;-78
2021/12/15 06:01:46;;;;;;;37.83;19.85;;;;;;;3.23;59.02;95681.91;5078371;28;20032;-76
2021/12/15 06:04:13;;;;;;;30.67;18.95;;;;;;;3.21;58.64;95682.06;5061081;28;20031;-77
2021/12/15 06:06:38;;;;;;;21.75;13.75;;;;;;;3.05;58.19;95682.13;5062572;28;20113;-78
2021/12/15 06:09:04;;;;;;;24.67;15.73;;;;;;;2.93;59.47;95678.31;5081246;28;20036;-78
2021/12/15 06:11:30;;;;;;;42.83;23.95;;;;;;;2.96;59.33;95678.78;5079030;28;20028;-78
2021/12/15 06:13:55;;;;;;;26.23;15.88;;;;;;;2.92;59.14;95687.75;5078380;28;20085;-78
2021/12/15 06:16:21;;;;;;;44.00;24.05;;;;;;;2.88;59.68;95694.19;5081259;28;20120;-77
2021/12/15 06:18:48;;;;;;;44.42;26.48;;;;;;;2.94;60.12;95693.56;5078791;28;20049;-77
2021/12/15 06:21:14;;;;;;;32.40;18.20;;;;;;;2.88;58.97;95681.34;5100492;28;20039;-77
2021/12/15 06:23:39;;;;;;;23.23;15.00;;;;;;;2.85;59.22;95694.50;5079404;28;20030;-77
2021/12/15 06:26:09;;;;;;;23.10;15.20;;;;;;;2.81;59.46;95695.81;5076775;28;20035;-77
2021/12/15 06:28:35;;;;;;;31.30;17.65;;;;;;;2.83;59.25;95693.06;5078217;28;20514;-77
2021/12/15 06:31:00;;;;;;;37.03;17.85;;;;;;;2.82;59.43;95697.41;5079633;28;20057;-77
2021/12/15 06:33:26;;;;;;;38.55;21.65;;;;;;;2.83;59.38;95693.88;5077998;28;20531;-79
2021/12/15 06:35:53;;;;;;;28.80;16.40;;;;;;;2.79;59.08;95694.38;5080060;28;20410;-79
2021/12/15 06:38:23;;;;;;;33.65;18.88;;;;;;;2.71;59.62;95695.16;5077744;28;20055;-77
2021/12/15 06:40:48;;;;;;;44.35;23.55;;;;;;;2.72;59.89;95696.75;5060533;28;20123;-77
2021/12/15 06:43:14;;;;;;;47.72;25.15;;;;;;;2.79;59.47;95702.88;5061121;28;20445;-77
2021/12/15 06:45:52;;;;;;;52.30;25.05;;;;;;;2.85;59.75;95698.84;5075906;28;20472;-77
2021/12/15 06:59:17;;;;;;;43.15;21.70;;;;;;;2.98;59.39;95707.66;5077922;28;20094;-77
2021/12/15 07:01:42;;;;;;;34.22;17.85;;;;;;;3.00;58.95;95710.88;5077275;28;20154;-77
2021/12/15 07:04:08;;;;;;;33.33;16.95;;;;;;;2.98;59.18;95717.94;5079469;28;20032;-78
2021/12/15 07:06:33;;;;;;;36.08;19.33;;;;;;;3.00;59.25;95718.59;5080444;28;20024;-77
2021/12/15 07:08:59;;;;;;;43.03;20.98;;;;;;;3.00;58.62;95720.34;5078295;28;20036;-78
2021/12/15 07:11:24;;;;;;;46.10;24.52;;;;;;;3.09;59.03;95711.69;5078786;28;20081;-78
2021/12/15 07:13:50;;;;;;;27.92;15.40;;;;;;;3.13;58.83;95709.59;5079253;28;20051;-78
2021/12/15 07:16:18;;;;;;;27.30;16.15;;;;;;;3.11;58.80;95714.09;5078434;28;20031;-77
2021/12/15 07:19:03;;;;;;;28.33;17.00;;;;;;;3.14;58.95;95731.75;5048438;23;20107;-77
2021/12/15 07:21:34;;;;;;;65.50;28.90;;;;;;;3.19;58.71;95729.47;5050123;28;20516;-78
2021/12/15 07:23:59;;;;;;;36.85;20.13;;;;;;;3.24;58.53;95732.34;5061618;28;20032;-77
2021/12/15 07:26:25;;;;;;;47.15;21.23;;;;;;;3.27;58.55;95732.03;5058002;28;20044;-77
2021/12/15 07:28:50;;;;;;;54.88;24.38;;;;;;;3.26;58.65;95730.44;5032763;28;20033;-77
2021/12/15 07:31:16;;;;;;;45.33;24.77;;;;;;;3.33;58.25;95731.38;5031001;28;20496;-77
2021/12/15 07:33:42;;;;;;;57.60;28.02;;;;;;;3.39;58.68;95724.75;5063724;28;20060;-77
2021/12/15 07:36:07;;;;;;;88.50;37.13;;;;;;;3.45;58.35;95730.06;5050010;28;20037;-78
2021/12/15 07:38:34;;;;;;;66.00;30.27;;;;;;;3.49;57.53;95736.47;5050528;28;20051;-79
2021/12/15 07:41:04;;;;;;;94.82;41.50;;;;;;;3.56;57.87;95742.56;5032519;28;20103;-79
2021/12/15 07:43:29;;;;;;;39.15;21.92;;;;;;;3.58;57.78;95730.34;5048273;28;20108;-78
2021/12/15 07:46:00;;;;;;;23.50;13.95;;;;;;;3.49;57.53;95741.63;5047105;28;20029;-76
2021/12/15 07:48:29;;;;;;;25.45;15.60;;;;;;;3.45;57.60;95739.56;5030826;28;20049;-78
2021/12/15 07:50:56;;;;;;;39.28;19.08;;;;;;;3.36;57.47;95745.66;5048330;28;20025;-78
2021/12/15 07:53:21;;;;;;;33.50;18.60;;;;;;;3.37;57.89;95748.06;5066314;28;20043;-78
2021/12/15 07:55:48;;;;;;;33.05;19.23;;;;;;;3.41;57.69;95749.34;5049430;28;20037;-79
2021/12/15 07:58:13;;;;;;;25.17;15.32;;;;;;;3.31;58.43;95749.53;5017375;28;20041;-79
2021/12/15 08:00:40;;;;;;;28.85;18.23;;;;;;;3.23;58.53;95761.59;5067490;28;20033;-78
2021/12/15 08:03:05;;;;;;;39.17;22.35;;;;;;;3.26;58.25;95753.56;5067119;28;20120;-77
2021/12/15 08:05:31;;;;;;;30.27;17.75;;;;;;;3.26;58.14;95751.00;5049745;28;20039;-77
2021/12/15 08:07:56;;;;;;;28.73;16.05;;;;;;;3.29;57.73;95748.09;5050487;28;20033;-78
2021/12/15 08:10:22;;;;;;;28.45;16.63;;;;;;;3.29;58.04;95760.97;5051608;28;20513;-77
2021/12/15 08:12:50;;;;;;;42.00;23.60;;;;;;;3.20;58.82;95767.84;5067605;28;20036;-76
2021/12/15 08:15:16;;;;;;;29.83;18.02;;;;;;;3.15;58.47;95766.75;5033460;28;20167;-77
2021/12/15 08:17:46;;;;;;;32.50;18.58;;;;;;;3.12;58.76;95775.59;5048975;28;20583;-77
2021/12/15 08:20:11;;;;;;;37.72;20.58;;;;;;;3.08;59.27;95776.06;5033736;28;20036;-76
2021/12/15 08:22:38;;;;;;;31.48;17.83;;;;;;;3.06;59.40;95775.41;5048370;28;20052;-77
2021/12/15 08:25:05;;;;;;;38.70;22.38;;;;;;;3.07;59.95;95777.81;5051016;28;20032;-77
2021/12/15 08:27:30;;;;;;;33.58;19.42;;;;;;;3.13;60.15;95773.81;5051111;28;20452;-77
2021/12/15 08:29:56;;;;;;;35.55;18.50;;;;;;;3.13;59.28;95782.34;5049590;28;20114;-76
2021/12/15 08:32:21;;;;;;;29.30;17.25;;;;;;;3.05;59.15;95776.38;5050842;28;20036;-81
2021/12/15 08:34:47;;;;;;;39.95;22.92;;;;;;;3.03;59.75;95781.69;5053097;28;20167;-76
2021/12/15 08:37:14;;;;;;;36.35;19.45;;;;;;;3.13;58.99;95784.09;5033381;28;20033;-76
2021/12/15 08:39:43;;;;;;;28.52;18.13;;;;;;;3.13;59.41;95784.09;5049651;28;20064;-76
2021/12/15 08:42:09;;;;;;;22.95;16.65;;;;;;;3.20;58.95;95777.34;5032903;28;20117;-76
2021/12/15 08:44:35;;;;;;;29.80;17.73;;;;;;;3.21;58.90;95784.09;5032706;28;20120;-77
2021/12/15 08:47:00;;;;;;;32.63;19.52;;;;;;;3.23;58.64;95782.16;5049501;28;20041;-76
2021/12/15 08:49:26;;;;;;;32.70;18.27;;;;;;;3.28;58.96;95790.19;5049205;28;20029;-76
2021/12/15 08:51:51;;;;;;;24.33;14.55;;;;;;;3.30;58.83;95794.22;5050772;28;20552;-76
2021/12/15 08:54:18;;;;;;;27.30;15.57;;;;;;;3.39;57.98;95789.84;5050432;28;20037;-76
2021/12/15 08:56:44;;;;;;;35.92;19.75;;;;;;;3.47;57.77;95794.97;5049359;28;20476;-76
2021/12/15 08:59:09;;;;;;;39.15;23.33;;;;;;;3.50;58.15;95794.66;5050425;28;20039;-76
2021/12/15 09:01:35;;;;;;;24.70;15.15;;;;;;;3.47;57.78;95784.69;5049238;28;20032;-76
2021/12/15 09:04:01;;;;;;;24.55;14.35;;;;;;;3.46;57.74;95790.81;5048716;28;20041;-76
2021/12/15 09:06:26;;;;;;;17.58;12.20;;;;;;;3.46;57.33;95797.72;5050300;28;20029;-76
2021/12/15 09:08:52;;;;;;;23.23;14.93;;;;;;;3.50;57.79;95799.78;5048647;28;20124;-77
2021/12/15 09:11:20;;;;;;;29.52;17.92;;;;;;;3.51;57.59;95793.69;5049440;28;20033;-76
2021/12/15 09:13:47;;;;;;;26.40;16.58;;;;;;;3.51;57.62;95801.41;5049282;28;20464;-76
2021/12/15 09:16:13;;;;;;;32.45;19.48;;;;;;;3.52;57.87;95795.28;5050303;28;20472;-77
2021/12/15 09:18:40;;;;;;;44.42;28.48;;;;;;;3.48;57.80;95799.16;5049842;28;20083;-76
2021/12/15 09:21:06;;;;;;;30.52;21.67;;;;;;;3.50;57.79;95799.78;5048112;28;20086;-77
2021/12/15 09:23:31;;;;;;;25.45;17.38;;;;;;;3.46;57.69;95798.53;5048779;28;20033;-77
2021/12/15 09:25:57;;;;;;;34.30;21.30;;;;;;;3.41;58.31;95797.38;5048356;28;20098;-77
2021/12/15 09:28:24;;;;;;;20.65;14.23;;;;;;;3.42;57.93;95799.03;5048829;28;20155;-77
2021/12/15 09:30:50;;;;;;;28.08;16.13;;;;;;;3.37;58.30;95804.63;5050366;28;20171;-76
2021/12/15 09:35:48;;;;;;;34.03;18.58;;;;;;;3.28;58.70;95795.34;5075106;23;20045;-76
2021/12/15 09:38:15;;;;;;;37.60;20.50;;;;;;;3.23;59.09;95793.22;5075157;28;20035;-76
2021/12/15 09:40:41;;;;;;;23.63;14.45;;;;;;;3.17;59.16;95791.31;5070072;28;20043;-76
2021/12/15 09:43:07;;;;;;;43.63;23.88;;;;;;;3.14;59.18;95798.56;5069831;28;20028;-76
2021/12/15 09:45:50;;;;;;;34.67;18.92;;;;;;;3.13;60.00;95799.53;5068635;28;20110;-76
2021/12/15 10:05:01;;;;;;;37.78;21.15;;;;;;;3.13;60.19;95794.38;5052080;28;20480;-76
2021/12/15 10:18:43;;;;;;;41.78;26.27;;;;;;;3.53;59.09;95772.94;5053281;28;20097;-76
2021/12/15 10:21:09;;;;;;;51.78;30.10;;;;;;;3.61;58.88;95778.88;5067987;28;20039;-76
2021/12/15 10:23:39;;;;;;;40.33;23.25;;;;;;;3.69;58.24;95775.47;5034184;28;20515;-77
2021/12/15 10:26:06;;;;;;;36.55;20.25;;;;;;;3.65;58.47;95770.84;5068083;28;20049;-76
2021/12/15 10:28:31;;;;;;;33.67;19.27;;;;;;;3.63;58.41;95768.44;5051145;28;20031;-76
2021/12/15 10:31:03;;;;;;;64.82;34.38;;;;;;;3.68;58.88;95767.94;5068084;28;20028;-76
2021/12/15 10:33:34;;;;;;;47.58;25.95;;;;;;;3.60;58.80;95774.72;5035546;28;20115;-76
2021/12/15 10:36:02;;;;;;;69.13;33.80;;;;;;;3.63;59.07;95757.34;5068133;28;20487;-77
2021/12/15 10:38:30;;;;;;;69.55;34.80;;;;;;;3.71;59.13;95759.88;5034278;28;20084;-76
2021/12/15 10:40:57;;;;;;;74.13;35.63;;;;;;;3.83;58.26;95755.97;5067624;28;20060;-76
2021/12/15 10:43:25;;;;;;;52.03;26.00;;;;;;;3.90;57.81;95762.88;5067060;28;20064;-76
2021/12/15 10:45:57;;;;;;;41.33;20.80;;;;;;;3.82;58.34;95750.03;5051267;28;20400;-76
2021/12/15 10:48:39;;;;;;;37.30;20.90;;;;;;;3.82;58.80;95749.22;5051244;28;20044;-76
2021/12/15 10:51:27;;;;;;;57.88;27.25;;;;;;;3.76;58.71;95757.63;5068130;28;20193;-76
2021/12/15 10:53:53;;;;;;;62.65;28.17;;;;;;;3.74;58.60;95760.38;5066375;28;20029;-76
2021/12/15 10:56:21;;;;;;;141.63;50.30;;;;;;;3.77;59.61;95759.22;5084442;28;20074;-76
2021/12/15 10:58:48;;;;;;;146.85;52.70;;;;;;;3.82;59.78;95752.59;5067531;28;20037;-76
2021/12/15 11:01:32;;;;;;;207.13;67.97;;;;;;;3.87;60.07;95764.97;5050718;28;20036;-77
2021/12/15 11:04:00;;;;;;;213.05;74.32;;;;;;;3.92;60.28;95762.72;5067472;28;20131;-77
2021/12/15 11:06:32;;;;;;;86.75;37.60;;;;;;;4.04;59.55;95761.34;5037483;28;20036;-78
2021/12/15 11:09:16;;;;;;;128.05;48.28;;;;;;;4.10;59.68;95768.41;5070773;28;20044;-78
2021/12/15 11:12:03;;;;;;;133.65;59.42;;;;;;;4.14;59.29;95756.81;5067148;28;20056;-79
2021/12/15 11:14:36;;;;;;;145.52;60.97;;;;;;;4.18;58.84;95750.34;5069328;28;20029;-76
2021/12/15 11:17:29;;;;;;;116.45;46.83;;;;;;;4.21;58.37;95757.72;5067373;28;20028;-76
2021/12/15 11:20:07;;;;;;;96.32;37.38;;;;;;;4.22;58.27;95753.38;5067171;28;20051;-77
2021/12/15 11:22:47;;;;;;;78.13;33.58;;;;;;;4.27;57.84;95752.91;5067019;28;20024;-77
2021/12/15 11:25:34;;;;;;;172.68;65.55;;;;;;;4.34;57.99;95753.81;5068074;28;20041;-75
2021/12/15 11:27:59;;;;;;;90.53;35.17;;;;;;;4.31;57.88;95747.22;5065226;28;20032;-77
2021/12/15 11:30:34;;;;;;;121.47;50.28;;;;;;;4.33;58.34;95750.44;5069239;28;20411;-76
2021/12/15 11:33:02;;;;;;;100.57;42.63;;;;;;;4.38;58.09;95747.34;5071397;28;20032;-77
2021/12/15 11:35:31;;;;;;;90.10;38.13;;;;;;;4.38;57.22;95745.56;5070227;28;20028;-77
2021/12/15 11:38:07;;;;;;;74.07;33.60;;;;;;;4.41;57.24;95752.19;5053050;28;20025;-77
2021/12/15 11:40:59;;;;;;;126.43;56.08;;;;;;;4.45;58.13;95743.94;5053602;28;20039;-75
2021/12/15 11:43:29;;;;;;;51.45;27.85;;;;;;;4.48;57.10;95747.94;5068410;28;20045;-75
2021/12/15 11:45:54;;;;;;;63.55;30.10;;;;;;;4.42;57.25;95741.69;5070187;28;20033;-76
2021/12/15 11:48:26;;;;;;;46.45;23.40;;;;;;;4.27;57.34;95740.03;5071074;28;20025;-76
2021/12/15 11:50:55;;;;;;;63.90;30.98;;;;;;;4.30;57.89;95744.81;5069186;28;20099;-76
2021/12/15 11:53:31;;;;;;;35.00;20.88;;;;;;;4.25;58.11;95741.97;5069746;28;20036;-76
2021/12/15 11:56:22;;;;;;;47.45;27.15;;;;;;;4.23;58.33;95744.72;5053047;28;20376;-76
2021/12/15 11:58:50;;;;;;;37.22;24.33;;;;;;;4.10;58.21;95740.09;5070414;28;20039;-76
2021/12/15 12:01:42;;;;;;;49.90;30.38;;;;;;;4.07;58.79;95737.88;5085387;28;20036;-76
2021/12/15 12:04:14;;;;;;;47.35;29.67;;;;;;;4.05;58.58;95732.06;5069759;28;20618;-76
2021/12/15 12:06:39;;;;;;;37.97;20.58;;;;;;;3.96;58.39;95727.94;5069094;28;20063;-76
2021/12/15 12:09:04;;;;;;;46.40;26.35;;;;;;;3.97;59.34;95729.56;5069970;28;20125;-76
2021/12/15 12:11:33;;;;;;;37.78;23.23;;;;;;;4.03;59.03;95734.00;5070312;28;20499;-76
2021/12/15 12:13:59;;;;;;;27.55;18.13;;;;;;;4.06;58.84;95735.44;5071319;28;20037;-76
2021/12/15 12:16:25;;;;;;;20.98;15.38;;;;;;;4.07;59.44;95740.44;5071131;28;20451;-75
2021/12/15 12:18:53;;;;;;;30.27;16.98;;;;;;;4.01;58.71;95733.38;5070064;28;20028;-76
2021/12/15 12:21:20;;;;;;;27.88;15.70;;;;;;;3.85;58.96;95738.59;5068877;28;20039;-76
2021/12/15 12:23:49;;;;;;;27.63;17.10;;;;;;;3.67;59.57;95735.47;5053138;28;20033;-76
2021/12/15 12:26:16;;;;;;;29.77;17.17;;;;;;;3.49;60.11;95720.25;5053730;28;20145;-76
2021/12/15 12:28:43;;;;;;;29.25;18.60;;;;;;;3.42;60.42;95727.84;5068896;28;20032;-76
2021/12/15 12:31:21;;;;;;;29.67;18.25;;;;;;;3.47;60.49;95727.34;5069015;28;20112;-77
2021/12/15 12:33:47;;;;;;;37.88;19.80;;;;;;;3.51;60.76;95724.25;5053185;28;20448;-76
2021/12/15 12:36:16;;;;;;;31.88;18.70;;;;;;;3.43;60.66;95729.44;5052737;28;20036;-76
2021/12/15 12:38:50;;;;;;;47.78;24.92;;;;;;;3.41;60.93;95727.97;5069372;28;20044;-76
2021/12/15 12:41:20;;;;;;;31.25;19.38;;;;;;;3.39;61.29;95725.56;5085692;28;20514;-77
2021/12/15 12:43:55;;;;;;;34.00;18.55;;;;;;;3.38;60.71;95723.97;5085345;28;20036;-76
2021/12/15 12:46:28;;;;;;;43.55;23.08;;;;;;;3.38;60.97;95728.31;5069994;28;20037;-76